sensor_id;sensor_type;location;lat;lon;timestamp;temperature;humidity
39777;DHT22;25453;48.162;14.510;2024-03-17T00:02:18;12.50;74.30
39777;DHT22;25453;48.162;14.510;2024-03-17T00:04:48;12.50;74.10
39777;DHT22;25453;48.162;14.510;2024-03-17T00:07:14;12.50;74.10
39777;DHT22;25453;48.162;14.510;2024-03-17T00:09:40;12.50;74.00
39777;DHT22;25453;48.162;14.510;2024-03-17T00:12:08;12.50;74.00
39777;DHT22;25453;48.162;14.510;2024-03-17T00:14:34;12.50;74.00
39777;DHT22;25453;48.162;14.510;2024-03-17T00:17:01;12.50;73.70
39777;DHT22;25453;48.162;14.510;2024-03-17T00:19:27;12.50;73.60
39777;DHT22;25453;48.162;14.510;2024-03-17T00:21:53;12.50;73.60
39777;DHT22;25453;48.162;14.510;2024-03-17T00:24:19;12.50;73.40
39777;DHT22;25453;48.162;14.510;2024-03-17T00:26:46;12.50;73.20
39777;DHT22;25453;48.162;14.510;2024-03-17T00:29:13;12.40;73.00
39777;DHT22;25453;48.162;14.510;2024-03-17T00:31:41;12.40;73.00
39777;DHT22;25453;48.162;14.510;2024-03-17T00:34:07;12.40;73.10
39777;DHT22;25453;48.162;14.510;2024-03-17T00:36:33;12.40;73.00
39777;DHT22;25453;48.162;14.510;2024-03-17T00:38:59;12.40;73.00
39777;DHT22;25453;48.162;14.510;2024-03-17T00:41:26;12.40;72.90
39777;DHT22;25453;48.162;14.510;2024-03-17T00:43:52;12.40;72.80
39777;DHT22;25453;48.162;14.510;2024-03-17T00:46:21;12.40;72.90
39777;DHT22;25453;48.162;14.510;2024-03-17T00:48:50;12.40;72.70
39777;DHT22;25453;48.162;14.510;2024-03-17T00:51:16;12.30;72.60
39777;DHT22;25453;48.162;14.510;2024-03-17T00:53:43;12.30;72.70
39777;DHT22;25453;48.162;14.510;2024-03-17T00:56:09;12.30;72.70
39777;DHT22;25453;48.162;14.510;2024-03-17T00:58:35;12.20;72.70
39777;DHT22;25453;48.162;14.510;2024-03-17T01:01:01;12.20;72.70
39777;DHT22;25453;48.162;14.510;2024-03-17T01:03:28;12.20;72.70
39777;DHT22;25453;48.162;14.510;2024-03-17T01:05:54;12.20;72.80
39777;DHT22;25453;48.162;14.510;2024-03-17T01:08:20;12.20;72.80
39777;DHT22;25453;48.162;14.510;2024-03-17T01:10:47;12.20;72.60
39777;DHT22;25453;48.162;14.510;2024-03-17T01:13:17;12.20;72.50
39777;DHT22;25453;48.162;14.510;2024-03-17T01:15:44;12.20;72.50
39777;DHT22;25453;48.162;14.510;2024-03-17T01:18:10;12.20;72.60
39777;DHT22;25453;48.162;14.510;2024-03-17T01:20:37;12.20;72.50
39777;DHT22;25453;48.162;14.510;2024-03-17T01:23:04;12.20;72.30
39777;DHT22;25453;48.162;14.510;2024-03-17T01:25:30;12.10;72.30
39777;DHT22;25453;48.162;14.510;2024-03-17T01:27:57;12.10;72.30
39777;DHT22;25453;48.162;14.510;2024-03-17T01:30:23;12.10;72.20
39777;DHT22;25453;48.162;14.510;2024-03-17T01:32:51;12.10;72.20
39777;DHT22;25453;48.162;14.510;2024-03-17T01:35:17;12.10;72.20
39777;DHT22;25453;48.162;14.510;2024-03-17T01:37:44;12.10;72.10
39777;DHT22;25453;48.162;14.510;2024-03-17T01:40:12;12.10;72.10
39777;DHT22;25453;48.162;14.510;2024-03-17T01:42:39;12.10;72.20
39777;DHT22;25453;48.162;14.510;2024-03-17T01:45:29;12.10;72.20
39777;DHT22;25453;48.162;14.510;2024-03-17T01:47:56;12.10;72.10
39777;DHT22;25453;48.162;14.510;2024-03-17T01:50:28;12.10;71.80
39777;DHT22;25453;48.162;14.510;2024-03-17T01:52:57;12.10;71.80
39777;DHT22;25453;48.162;14.510;2024-03-17T01:55:26;12.10;72.00
39777;DHT22;25453;48.162;14.510;2024-03-17T01:57:53;12.10;72.00
39777;DHT22;25453;48.162;14.510;2024-03-17T02:00:20;12.10;71.90
39777;DHT22;25453;48.162;14.510;2024-03-17T02:02:47;12.10;71.90
39777;DHT22;25453;48.162;14.510;2024-03-17T02:05:13;12.10;71.90
39777;DHT22;25453;48.162;14.510;2024-03-17T02:07:40;12.10;71.70
39777;DHT22;25453;48.162;14.510;2024-03-17T02:10:07;12.10;71.60
39777;DHT22;25453;48.162;14.510;2024-03-17T02:12:35;12.10;71.70
39777;DHT22;25453;48.162;14.510;2024-03-17T02:15:02;12.10;71.80
39777;DHT22;25453;48.162;14.510;2024-03-17T02:17:32;12.10;71.80
39777;DHT22;25453;48.162;14.510;2024-03-17T02:19:59;12.10;71.70
39777;DHT22;25453;48.162;14.510;2024-03-17T02:22:28;12.10;71.60
39777;DHT22;25453;48.162;14.510;2024-03-17T02:24:54;12.10;71.50
39777;DHT22;25453;48.162;14.510;2024-03-17T02:27:20;12.10;71.40
39777;DHT22;25453;48.162;14.510;2024-03-17T02:29:47;12.10;71.50
39777;DHT22;25453;48.162;14.510;2024-03-17T02:32:13;12.10;71.60
39777;DHT22;25453;48.162;14.510;2024-03-17T02:34:39;12.10;71.50
39777;DHT22;25453;48.162;14.510;2024-03-17T02:37:05;12.10;71.50
39777;DHT22;25453;48.162;14.510;2024-03-17T02:39:34;12.10;71.50
39777;DHT22;25453;48.162;14.510;2024-03-17T02:42:10;12.10;71.50
39777;DHT22;25453;48.162;14.510;2024-03-17T02:44:38;12.10;71.60
39777;DHT22;25453;48.162;14.510;2024-03-17T02:47:05;12.10;71.50
39777;DHT22;25453;48.162;14.510;2024-03-17T02:49:32;12.10;71.50
39777;DHT22;25453;48.162;14.510;2024-03-17T02:52:06;12.10;71.40
39777;DHT22;25453;48.162;14.510;2024-03-17T02:54:35;12.10;71.40
39777;DHT22;25453;48.162;14.510;2024-03-17T02:57:02;12.00;71.30
39777;DHT22;25453;48.162;14.510;2024-03-17T02:59:29;12.00;71.30
39777;DHT22;25453;48.162;14.510;2024-03-17T03:01:55;12.00;71.20
39777;DHT22;25453;48.162;14.510;2024-03-17T03:04:21;12.00;71.30
39777;DHT22;25453;48.162;14.510;2024-03-17T03:06:47;12.00;71.30
39777;DHT22;25453;48.162;14.510;2024-03-17T03:09:14;11.90;71.30
39777;DHT22;25453;48.162;14.510;2024-03-17T03:11:46;11.90;71.40
39777;DHT22;25453;48.162;14.510;2024-03-17T03:14:13;11.90;71.30
39777;DHT22;25453;48.162;14.510;2024-03-17T03:16:39;11.90;71.30
39777;DHT22;25453;48.162;14.510;2024-03-17T03:19:05;11.90;71.30
39777;DHT22;25453;48.162;14.510;2024-03-17T03:21:31;11.90;71.30
39777;DHT22;25453;48.162;14.510;2024-03-17T03:23:57;11.90;71.30
39777;DHT22;25453;48.162;14.510;2024-03-17T03:26:24;11.90;71.20
39777;DHT22;25453;48.162;14.510;2024-03-17T03:28:50;11.90;71.20
39777;DHT22;25453;48.162;14.510;2024-03-17T03:31:17;11.90;71.20
39777;DHT22;25453;48.162;14.510;2024-03-17T03:33:43;11.90;71.30
39777;DHT22;25453;48.162;14.510;2024-03-17T03:36:11;11.90;71.20
39777;DHT22;25453;48.162;14.510;2024-03-17T03:38:38;11.90;71.30
39777;DHT22;25453;48.162;14.510;2024-03-17T03:41:15;11.90;71.10
39777;DHT22;25453;48.162;14.510;2024-03-17T03:43:41;11.90;71.20
39777;DHT22;25453;48.162;14.510;2024-03-17T03:46:08;12.00;71.20
39777;DHT22;25453;48.162;14.510;2024-03-17T03:48:34;12.00;71.20
39777;DHT22;25453;48.162;14.510;2024-03-17T03:51:07;12.00;71.10
39777;DHT22;25453;48.162;14.510;2024-03-17T03:53:34;12.00;71.00
39777;DHT22;25453;48.162;14.510;2024-03-17T03:56:02;12.00;71.00
39777;DHT22;25453;48.162;14.510;2024-03-17T03:58:36;12.00;70.80
39777;DHT22;25453;48.162;14.510;2024-03-17T04:01:06;11.90;70.80
39777;DHT22;25453;48.162;14.510;2024-03-17T04:03:36;11.80;70.80
39777;DHT22;25453;48.162;14.510;2024-03-17T04:08:31;11.80;71.20
39777;DHT22;25453;48.162;14.510;2024-03-17T04:10:57;11.80;71.20
39777;DHT22;25453;48.162;14.510;2024-03-17T04:13:30;11.90;71.20
39777;DHT22;25453;48.162;14.510;2024-03-17T04:15:57;11.90;71.10
39777;DHT22;25453;48.162;14.510;2024-03-17T04:18:25;11.90;71.00
39777;DHT22;25453;48.162;14.510;2024-03-17T04:20:55;11.90;71.10
39777;DHT22;25453;48.162;14.510;2024-03-17T04:23:22;11.90;71.00
39777;DHT22;25453;48.162;14.510;2024-03-17T04:25:50;12.00;71.00
39777;DHT22;25453;48.162;14.510;2024-03-17T04:28:17;12.00;71.00
39777;DHT22;25453;48.162;14.510;2024-03-17T04:30:43;12.00;71.00
39777;DHT22;25453;48.162;14.510;2024-03-17T04:33:10;12.00;70.90
39777;DHT22;25453;48.162;14.510;2024-03-17T04:35:40;12.00;70.90
39777;DHT22;25453;48.162;14.510;2024-03-17T04:38:10;12.00;70.80
39777;DHT22;25453;48.162;14.510;2024-03-17T04:40:40;12.00;70.80
39777;DHT22;25453;48.162;14.510;2024-03-17T04:43:07;12.00;70.80
39777;DHT22;25453;48.162;14.510;2024-03-17T04:45:34;12.00;70.80
39777;DHT22;25453;48.162;14.510;2024-03-17T04:48:00;12.00;70.80
39777;DHT22;25453;48.162;14.510;2024-03-17T04:50:27;12.00;70.70
39777;DHT22;25453;48.162;14.510;2024-03-17T04:52:58;12.00;70.70
39777;DHT22;25453;48.162;14.510;2024-03-17T04:55:25;12.00;70.60
39777;DHT22;25453;48.162;14.510;2024-03-17T04:58:04;12.00;70.50
39777;DHT22;25453;48.162;14.510;2024-03-17T05:00:30;12.00;70.60
39777;DHT22;25453;48.162;14.510;2024-03-17T05:02:56;12.00;70.70
39777;DHT22;25453;48.162;14.510;2024-03-17T05:05:22;12.00;70.70
39777;DHT22;25453;48.162;14.510;2024-03-17T05:07:49;12.00;70.70
39777;DHT22;25453;48.162;14.510;2024-03-17T05:10:15;12.00;70.70
39777;DHT22;25453;48.162;14.510;2024-03-17T05:12:42;12.00;70.60
39777;DHT22;25453;48.162;14.510;2024-03-17T05:15:08;11.90;70.50
39777;DHT22;25453;48.162;14.510;2024-03-17T05:17:36;11.90;70.50
39777;DHT22;25453;48.162;14.510;2024-03-17T05:20:02;11.90;70.40
39777;DHT22;25453;48.162;14.510;2024-03-17T05:22:29;11.80;70.20
39777;DHT22;25453;48.162;14.510;2024-03-17T05:24:55;11.70;70.00
39777;DHT22;25453;48.162;14.510;2024-03-17T05:27:21;11.60;70.10
39777;DHT22;25453;48.162;14.510;2024-03-17T05:29:47;11.60;70.30
39777;DHT22;25453;48.162;14.510;2024-03-17T05:32:13;11.50;70.50
39777;DHT22;25453;48.162;14.510;2024-03-17T05:34:40;11.50;70.60
39777;DHT22;25453;48.162;14.510;2024-03-17T05:37:07;11.40;70.70
39777;DHT22;25453;48.162;14.510;2024-03-17T05:39:34;11.40;70.80
39777;DHT22;25453;48.162;14.510;2024-03-17T05:42:02;11.40;70.80
39777;DHT22;25453;48.162;14.510;2024-03-17T05:44:30;11.40;70.90
39777;DHT22;25453;48.162;14.510;2024-03-17T05:47:05;11.30;71.10
39777;DHT22;25453;48.162;14.510;2024-03-17T05:49:33;11.40;71.30
39777;DHT22;25453;48.162;14.510;2024-03-17T05:52:00;11.40;71.20
39777;DHT22;25453;48.162;14.510;2024-03-17T05:54:26;11.40;71.40
39777;DHT22;25453;48.162;14.510;2024-03-17T05:56:52;11.40;71.60
39777;DHT22;25453;48.162;14.510;2024-03-17T05:59:18;11.40;71.70
39777;DHT22;25453;48.162;14.510;2024-03-17T06:01:45;11.50;71.80
39777;DHT22;25453;48.162;14.510;2024-03-17T06:04:11;11.60;71.90
39777;DHT22;25453;48.162;14.510;2024-03-17T06:06:37;11.60;71.90
39777;DHT22;25453;48.162;14.510;2024-03-17T06:09:04;11.70;71.90
39777;DHT22;25453;48.162;14.510;2024-03-17T06:11:30;11.70;71.80
39777;DHT22;25453;48.162;14.510;2024-03-17T06:13:56;11.80;71.80
39777;DHT22;25453;48.162;14.510;2024-03-17T06:16:22;11.80;71.70
39777;DHT22;25453;48.162;14.510;2024-03-17T06:18:48;11.80;71.60
39777;DHT22;25453;48.162;14.510;2024-03-17T06:21:16;11.90;71.60
39777;DHT22;25453;48.162;14.510;2024-03-17T06:23:44;11.90;71.50
39777;DHT22;25453;48.162;14.510;2024-03-17T06:26:12;11.90;71.40
39777;DHT22;25453;48.162;14.510;2024-03-17T06:28:38;11.90;71.40
39777;DHT22;25453;48.162;14.510;2024-03-17T06:31:04;12.00;71.40
39777;DHT22;25453;48.162;14.510;2024-03-17T06:33:33;12.00;71.40
39777;DHT22;25453;48.162;14.510;2024-03-17T06:36:03;12.00;71.30
39777;DHT22;25453;48.162;14.510;2024-03-17T06:38:33;12.10;71.30
39777;DHT22;25453;48.162;14.510;2024-03-17T06:40:59;12.10;71.30
39777;DHT22;25453;48.162;14.510;2024-03-17T06:43:25;12.10;71.20
39777;DHT22;25453;48.162;14.510;2024-03-17T06:45:59;12.10;71.20
39777;DHT22;25453;48.162;14.510;2024-03-17T06:48:26;12.20;71.10
39777;DHT22;25453;48.162;14.510;2024-03-17T06:50:53;12.20;71.10
39777;DHT22;25453;48.162;14.510;2024-03-17T06:53:21;12.20;70.90
39777;DHT22;25453;48.162;14.510;2024-03-17T06:55:58;12.20;70.90
39777;DHT22;25453;48.162;14.510;2024-03-17T06:58:26;12.30;70.90
39777;DHT22;25453;48.162;14.510;2024-03-17T07:03:24;12.30;70.70
39777;DHT22;25453;48.162;14.510;2024-03-17T07:05:55;12.30;70.50
39777;DHT22;25453;48.162;14.510;2024-03-17T07:08:22;12.30;70.50
39777;DHT22;25453;48.162;14.510;2024-03-17T07:11:02;12.30;70.50
39777;DHT22;25453;48.162;14.510;2024-03-17T07:13:33;12.30;70.40
39777;DHT22;25453;48.162;14.510;2024-03-17T07:16:00;12.30;70.30
39777;DHT22;25453;48.162;14.510;2024-03-17T07:18:30;12.30;70.20
39777;DHT22;25453;48.162;14.510;2024-03-17T07:20:58;12.40;70.10
39777;DHT22;25453;48.162;14.510;2024-03-17T07:23:25;12.40;70.00
39777;DHT22;25453;48.162;14.510;2024-03-17T07:25:56;12.40;70.00
39777;DHT22;25453;48.162;14.510;2024-03-17T07:28:23;12.40;70.00
39777;DHT22;25453;48.162;14.510;2024-03-17T07:30:51;12.50;70.00
39777;DHT22;25453;48.162;14.510;2024-03-17T07:33:18;12.50;69.90
39777;DHT22;25453;48.162;14.510;2024-03-17T07:35:52;12.50;69.70
39777;DHT22;25453;48.162;14.510;2024-03-17T07:38:19;12.50;69.40
39777;DHT22;25453;48.162;14.510;2024-03-17T07:40:54;12.50;69.30
39777;DHT22;25453;48.162;14.510;2024-03-17T07:43:22;12.50;69.40
39777;DHT22;25453;48.162;14.510;2024-03-17T07:45:56;12.50;69.30
39777;DHT22;25453;48.162;14.510;2024-03-17T07:48:22;12.50;69.30
39777;DHT22;25453;48.162;14.510;2024-03-17T07:51:04;12.60;69.40
39777;DHT22;25453;48.162;14.510;2024-03-17T07:53:31;12.70;69.40
39777;DHT22;25453;48.162;14.510;2024-03-17T07:56:08;12.70;69.30
39777;DHT22;25453;48.162;14.510;2024-03-17T07:58:40;12.80;69.40
39777;DHT22;25453;48.162;14.510;2024-03-17T08:01:09;12.90;69.00
39777;DHT22;25453;48.162;14.510;2024-03-17T08:03:37;12.90;68.90
39777;DHT22;25453;48.162;14.510;2024-03-17T08:06:05;13.00;68.90
39777;DHT22;25453;48.162;14.510;2024-03-17T08:08:32;13.10;68.80
39777;DHT22;25453;48.162;14.510;2024-03-17T08:10:59;13.20;68.50
39777;DHT22;25453;48.162;14.510;2024-03-17T08:13:25;13.20;68.20
39777;DHT22;25453;48.162;14.510;2024-03-17T08:15:57;13.30;67.90
39777;DHT22;25453;48.162;14.510;2024-03-17T08:18:23;13.30;67.50
39777;DHT22;25453;48.162;14.510;2024-03-17T08:20:50;13.30;67.10
39777;DHT22;25453;48.162;14.510;2024-03-17T08:23:16;13.30;66.90
39777;DHT22;25453;48.162;14.510;2024-03-17T08:25:42;13.30;66.60
39777;DHT22;25453;48.162;14.510;2024-03-17T08:28:09;13.40;66.50
39777;DHT22;25453;48.162;14.510;2024-03-17T08:30:35;13.40;66.40
39777;DHT22;25453;48.162;14.510;2024-03-17T08:33:01;13.40;66.30
39777;DHT22;25453;48.162;14.510;2024-03-17T08:35:28;13.50;66.30
39777;DHT22;25453;48.162;14.510;2024-03-17T08:37:54;13.60;66.50
39777;DHT22;25453;48.162;14.510;2024-03-17T08:40:21;13.80;66.50
39777;DHT22;25453;48.162;14.510;2024-03-17T08:42:49;14.00;66.20
39777;DHT22;25453;48.162;14.510;2024-03-17T08:45:15;14.10;65.80
39777;DHT22;25453;48.162;14.510;2024-03-17T08:47:42;14.20;65.60
39777;DHT22;25453;48.162;14.510;2024-03-17T08:50:09;14.40;65.20
39777;DHT22;25453;48.162;14.510;2024-03-17T08:52:38;14.50;64.70
39777;DHT22;25453;48.162;14.510;2024-03-17T08:55:05;14.60;63.90
39777;DHT22;25453;48.162;14.510;2024-03-17T08:57:35;14.50;63.20
39777;DHT22;25453;48.162;14.510;2024-03-17T09:00:02;14.60;63.40
39777;DHT22;25453;48.162;14.510;2024-03-17T09:02:28;14.70;63.50
39777;DHT22;25453;48.162;14.510;2024-03-17T09:04:54;14.80;63.20
39777;DHT22;25453;48.162;14.510;2024-03-17T09:07:20;15.00;63.50
39777;DHT22;25453;48.162;14.510;2024-03-17T09:09:47;15.00;62.90
39777;DHT22;25453;48.162;14.510;2024-03-17T09:12:14;15.10;62.20
39777;DHT22;25453;48.162;14.510;2024-03-17T09:14:40;15.10;61.80
39777;DHT22;25453;48.162;14.510;2024-03-17T09:17:07;15.20;61.90
39777;DHT22;25453;48.162;14.510;2024-03-17T09:19:33;15.30;60.80
39777;DHT22;25453;48.162;14.510;2024-03-17T09:21:59;15.30;60.40
39777;DHT22;25453;48.162;14.510;2024-03-17T09:24:25;15.40;60.30
39777;DHT22;25453;48.162;14.510;2024-03-17T09:26:52;15.50;60.40
39777;DHT22;25453;48.162;14.510;2024-03-17T09:29:19;15.70;59.80
39777;DHT22;25453;48.162;14.510;2024-03-17T09:31:45;15.90;59.60
39777;DHT22;25453;48.162;14.510;2024-03-17T09:34:11;16.10;58.40
39777;DHT22;25453;48.162;14.510;2024-03-17T09:36:37;16.20;58.20
39777;DHT22;25453;48.162;14.510;2024-03-17T09:39:03;16.40;57.70
39777;DHT22;25453;48.162;14.510;2024-03-17T09:41:33;16.60;57.30
39777;DHT22;25453;48.162;14.510;2024-03-17T09:44:06;16.70;56.60
39777;DHT22;25453;48.162;14.510;2024-03-17T09:46:35;16.80;55.70
39777;DHT22;25453;48.162;14.510;2024-03-17T09:49:02;16.90;55.20
39777;DHT22;25453;48.162;14.510;2024-03-17T09:51:28;16.90;54.90
39777;DHT22;25453;48.162;14.510;2024-03-17T09:53:55;16.90;54.60
39777;DHT22;25453;48.162;14.510;2024-03-17T09:56:21;16.90;53.60
39777;DHT22;25453;48.162;14.510;2024-03-17T09:58:48;16.80;53.50
39777;DHT22;25453;48.162;14.510;2024-03-17T10:01:15;16.70;53.80
39777;DHT22;25453;48.162;14.510;2024-03-17T10:03:48;16.70;53.80
39777;DHT22;25453;48.162;14.510;2024-03-17T10:06:19;16.70;53.60
39777;DHT22;25453;48.162;14.510;2024-03-17T10:08:53;16.70;53.20
39777;DHT22;25453;48.162;14.510;2024-03-17T10:11:41;16.60;52.70
39777;DHT22;25453;48.162;14.510;2024-03-17T10:14:08;16.60;53.30
39777;DHT22;25453;48.162;14.510;2024-03-17T10:16:36;16.70;53.50
39777;DHT22;25453;48.162;14.510;2024-03-17T10:21:35;16.90;52.90
39777;DHT22;25453;48.162;14.510;2024-03-17T10:24:21;17.00;52.80
39777;DHT22;25453;48.162;14.510;2024-03-17T10:26:48;17.20;52.70
39777;DHT22;25453;48.162;14.510;2024-03-17T10:29:33;17.40;51.80
39777;DHT22;25453;48.162;14.510;2024-03-17T10:32:20;17.50;51.20
39777;DHT22;25453;48.162;14.510;2024-03-17T10:34:50;17.50;50.70
39777;DHT22;25453;48.162;14.510;2024-03-17T10:37:19;17.50;50.10
39777;DHT22;25453;48.162;14.510;2024-03-17T10:39:51;17.40;49.70
39777;DHT22;25453;48.162;14.510;2024-03-17T10:42:28;17.20;49.30
39777;DHT22;25453;48.162;14.510;2024-03-17T10:44:54;17.00;49.20
39777;DHT22;25453;48.162;14.510;2024-03-17T10:47:24;16.90;49.50
39777;DHT22;25453;48.162;14.510;2024-03-17T10:49:51;16.90;50.20
39777;DHT22;25453;48.162;14.510;2024-03-17T10:52:19;16.90;49.90
39777;DHT22;25453;48.162;14.510;2024-03-17T10:54:50;16.80;49.60
39777;DHT22;25453;48.162;14.510;2024-03-17T10:59:54;16.60;49.40
39777;DHT22;25453;48.162;14.510;2024-03-17T11:02:21;16.40;49.40
39777;DHT22;25453;48.162;14.510;2024-03-17T11:04:55;16.40;50.00
39777;DHT22;25453;48.162;14.510;2024-03-17T11:07:22;16.50;50.70
39777;DHT22;25453;48.162;14.510;2024-03-17T11:09:51;16.70;50.30
39777;DHT22;25453;48.162;14.510;2024-03-17T11:17:55;17.00;49.50
39777;DHT22;25453;48.162;14.510;2024-03-17T11:20:22;17.20;49.30
39777;DHT22;25453;48.162;14.510;2024-03-17T11:22:56;17.30;49.10
39777;DHT22;25453;48.162;14.510;2024-03-17T11:27:58;17.40;48.70
39777;DHT22;25453;48.162;14.510;2024-03-17T11:30:57;17.50;48.70
39777;DHT22;25453;48.162;14.510;2024-03-17T11:38:58;17.90;48.50
39777;DHT22;25453;48.162;14.510;2024-03-17T11:41:35;18.00;48.10
39777;DHT22;25453;48.162;14.510;2024-03-17T11:47:02;18.10;48.00
39777;DHT22;25453;48.162;14.510;2024-03-17T11:49:39;18.30;48.00
39777;DHT22;25453;48.162;14.510;2024-03-17T11:52:10;18.40;47.90
39777;DHT22;25453;48.162;14.510;2024-03-17T11:57:11;18.60;47.40
39777;DHT22;25453;48.162;14.510;2024-03-17T11:59:39;18.70;47.30
39777;DHT22;25453;48.162;14.510;2024-03-17T12:04:53;19.00;46.70
39777;DHT22;25453;48.162;14.510;2024-03-17T12:07:21;19.00;46.40
39777;DHT22;25453;48.162;14.510;2024-03-17T12:09:52;19.10;46.30
39777;DHT22;25453;48.162;14.510;2024-03-17T12:12:25;19.10;46.20
39777;DHT22;25453;48.162;14.510;2024-03-17T12:14:56;19.10;46.00
39777;DHT22;25453;48.162;14.510;2024-03-17T12:17:24;19.10;46.20
39777;DHT22;25453;48.162;14.510;2024-03-17T12:19:51;19.10;46.00
39777;DHT22;25453;48.162;14.510;2024-03-17T12:22:22;19.10;46.00
39777;DHT22;25453;48.162;14.510;2024-03-17T12:24:53;19.00;45.70
39777;DHT22;25453;48.162;14.510;2024-03-17T12:27:24;18.90;45.20
39777;DHT22;25453;48.162;14.510;2024-03-17T12:29:53;18.70;45.60
39777;DHT22;25453;48.162;14.510;2024-03-17T12:32:21;18.70;45.60
39777;DHT22;25453;48.162;14.510;2024-03-17T12:34:53;18.60;45.70
39777;DHT22;25453;48.162;14.510;2024-03-17T12:37:21;18.50;46.00
39777;DHT22;25453;48.162;14.510;2024-03-17T12:39:48;18.60;46.20
39777;DHT22;25453;48.162;14.510;2024-03-17T12:42:16;18.60;46.30
39777;DHT22;25453;48.162;14.510;2024-03-17T12:44:53;18.80;46.60
39777;DHT22;25453;48.162;14.510;2024-03-17T12:47:24;18.90;46.40
39777;DHT22;25453;48.162;14.510;2024-03-17T12:49:55;19.00;46.00
39777;DHT22;25453;48.162;14.510;2024-03-17T12:52:24;19.10;45.50
39777;DHT22;25453;48.162;14.510;2024-03-17T12:54:58;19.10;45.60
39777;DHT22;25453;48.162;14.510;2024-03-17T12:57:49;19.10;45.70
39777;DHT22;25453;48.162;14.510;2024-03-17T13:00:34;19.10;45.60
39777;DHT22;25453;48.162;14.510;2024-03-17T13:03:01;19.20;45.60
39777;DHT22;25453;48.162;14.510;2024-03-17T13:05:28;19.30;45.40
39777;DHT22;25453;48.162;14.510;2024-03-17T13:07:54;19.30;45.20
39777;DHT22;25453;48.162;14.510;2024-03-17T13:10:23;19.30;45.90
39777;DHT22;25453;48.162;14.510;2024-03-17T13:15:27;19.40;45.70
39777;DHT22;25453;48.162;14.510;2024-03-17T13:17:57;19.40;45.20
39777;DHT22;25453;48.162;14.510;2024-03-17T13:20:23;19.40;45.00
39777;DHT22;25453;48.162;14.510;2024-03-17T13:22:49;19.40;45.00
39777;DHT22;25453;48.162;14.510;2024-03-17T13:25:17;19.40;44.90
39777;DHT22;25453;48.162;14.510;2024-03-17T13:27:47;19.30;44.80
39777;DHT22;25453;48.162;14.510;2024-03-17T13:30:14;19.30;44.70
39777;DHT22;25453;48.162;14.510;2024-03-17T13:32:40;19.30;44.60
39777;DHT22;25453;48.162;14.510;2024-03-17T13:35:21;19.20;44.50
39777;DHT22;25453;48.162;14.510;2024-03-17T13:37:49;19.20;44.30
39777;DHT22;25453;48.162;14.510;2024-03-17T13:40:20;19.10;44.20
39777;DHT22;25453;48.162;14.510;2024-03-17T13:42:47;19.00;44.30
39777;DHT22;25453;48.162;14.510;2024-03-17T13:45:16;19.00;44.50
39777;DHT22;25453;48.162;14.510;2024-03-17T13:48:19;19.00;44.50
39777;DHT22;25453;48.162;14.510;2024-03-17T13:50:39;18.90;44.50
39777;DHT22;25453;48.162;14.510;2024-03-17T13:53:08;18.90;44.50
39777;DHT22;25453;48.162;14.510;2024-03-17T13:55:34;18.80;44.30
39777;DHT22;25453;48.162;14.510;2024-03-17T13:58:01;18.70;44.50
39777;DHT22;25453;48.162;14.510;2024-03-17T14:00:28;18.70;44.50
39777;DHT22;25453;48.162;14.510;2024-03-17T14:02:55;18.60;44.60
39777;DHT22;25453;48.162;14.510;2024-03-17T14:05:23;18.60;44.50
39777;DHT22;25453;48.162;14.510;2024-03-17T14:07:52;18.50;44.60
39777;DHT22;25453;48.162;14.510;2024-03-17T14:10:21;18.40;44.60
39777;DHT22;25453;48.162;14.510;2024-03-17T14:12:47;18.30;44.60
39777;DHT22;25453;48.162;14.510;2024-03-17T14:15:14;18.20;44.60
39777;DHT22;25453;48.162;14.510;2024-03-17T14:17:42;18.10;44.60
39777;DHT22;25453;48.162;14.510;2024-03-17T14:20:09;17.90;44.70
39777;DHT22;25453;48.162;14.510;2024-03-17T14:22:42;17.80;44.70
39777;DHT22;25453;48.162;14.510;2024-03-17T14:25:18;17.70;44.90
39777;DHT22;25453;48.162;14.510;2024-03-17T14:27:45;17.50;45.10
39777;DHT22;25453;48.162;14.510;2024-03-17T14:30:15;17.40;45.20
39777;DHT22;25453;48.162;14.510;2024-03-17T14:32:41;17.30;45.30
39777;DHT22;25453;48.162;14.510;2024-03-17T14:35:15;17.20;45.40
39777;DHT22;25453;48.162;14.510;2024-03-17T14:37:42;17.10;45.50
39777;DHT22;25453;48.162;14.510;2024-03-17T14:40:20;17.00;45.70
39777;DHT22;25453;48.162;14.510;2024-03-17T14:42:55;16.90;45.90
39777;DHT22;25453;48.162;14.510;2024-03-17T14:45:22;16.80;46.10
39777;DHT22;25453;48.162;14.510;2024-03-17T14:47:50;16.80;46.20
39777;DHT22;25453;48.162;14.510;2024-03-17T14:50:16;16.70;46.30
39777;DHT22;25453;48.162;14.510;2024-03-17T14:52:43;16.70;46.40
39777;DHT22;25453;48.162;14.510;2024-03-17T14:55:09;16.60;46.50
39777;DHT22;25453;48.162;14.510;2024-03-17T14:57:40;16.50;46.50
39777;DHT22;25453;48.162;14.510;2024-03-17T15:00:11;16.50;46.60
39777;DHT22;25453;48.162;14.510;2024-03-17T15:02:46;16.40;46.80
39777;DHT22;25453;48.162;14.510;2024-03-17T15:05:16;16.40;46.90
39777;DHT22;25453;48.162;14.510;2024-03-17T15:07:45;16.30;47.10
39777;DHT22;25453;48.162;14.510;2024-03-17T15:10:11;16.30;47.40
39777;DHT22;25453;48.162;14.510;2024-03-17T15:12:41;16.20;47.30
39777;DHT22;25453;48.162;14.510;2024-03-17T15:15:08;16.30;47.40
39777;DHT22;25453;48.162;14.510;2024-03-17T15:17:36;16.20;47.50
39777;DHT22;25453;48.162;14.510;2024-03-17T15:20:03;16.20;47.60
39777;DHT22;25453;48.162;14.510;2024-03-17T15:22:46;16.20;47.70
39777;DHT22;25453;48.162;14.510;2024-03-17T15:25:15;16.30;47.80
39777;DHT22;25453;48.162;14.510;2024-03-17T15:27:42;16.30;47.90
39777;DHT22;25453;48.162;14.510;2024-03-17T15:30:15;16.30;47.90
39777;DHT22;25453;48.162;14.510;2024-03-17T15:32:48;16.30;47.90
39777;DHT22;25453;48.162;14.510;2024-03-17T15:35:15;16.20;47.70
39777;DHT22;25453;48.162;14.510;2024-03-17T15:37:42;16.20;47.60
39777;DHT22;25453;48.162;14.510;2024-03-17T15:40:09;16.20;47.50
39777;DHT22;25453;48.162;14.510;2024-03-17T15:42:43;16.10;47.40
39777;DHT22;25453;48.162;14.510;2024-03-17T15:45:10;16.10;47.00
39777;DHT22;25453;48.162;14.510;2024-03-17T15:47:36;16.00;47.10
39777;DHT22;25453;48.162;14.510;2024-03-17T15:50:03;16.00;47.10
39777;DHT22;25453;48.162;14.510;2024-03-17T15:52:29;15.90;47.10
39777;DHT22;25453;48.162;14.510;2024-03-17T15:54:56;15.90;47.20
39777;DHT22;25453;48.162;14.510;2024-03-17T15:57:29;15.90;47.40
39777;DHT22;25453;48.162;14.510;2024-03-17T15:59:55;15.80;47.40